Time;durP1;ratioP1;P1;durP2;ratioP2;P2;SDS_P1;SDS_P2;PMS_P1;PMS_P2;Temp;Humidity;BMP_temperature;BMP_pressure;BME280_temperature;BME280_humidity;BME280_pressure;Samples;Min_cycle;Max_cycle;Signal;HPM_P1;HPM_P2
2023/04/10 00:02:23;;;;;;;53.53;32.60;;;8.80;99.90;;;;;;5038713;28;20227;-84
2023/04/10 00:04:50;;;;;;;50.30;31.83;;;8.70;99.90;;;;;;5043200;28;20201;-85
2023/04/10 00:07:17;;;;;;;47.23;30.10;;;8.70;99.90;;;;;;5047139;28;20213;-84
2023/04/10 00:09:43;;;;;;;53.37;32.67;;;8.70;99.90;;;;;;5025634;28;20558;-84
2023/04/10 00:12:10;;;;;;;47.40;30.47;;;8.70;99.90;;;;;;5035367;28;20243;-84
2023/04/10 00:14:37;;;;;;;56.63;32.70;;;8.70;99.90;;;;;;5042242;28;20207;-85
2023/04/10 00:17:04;;;;;;;55.30;32.97;;;8.60;99.90;;;;;;5038763;28;20607;-83
2023/04/10 00:19:32;;;;;;;53.53;31.97;;;8.60;99.90;;;;;;5043339;28;20323;-84
2023/04/10 00:21:59;;;;;;;52.83;32.77;;;8.60;99.90;;;;;;5044969;28;20215;-83
2023/04/10 00:24:26;;;;;;;58.77;33.27;;;8.50;99.90;;;;;;5029898;28;20252;-84
2023/04/10 00:26:52;;;;;;;53.20;32.90;;;8.50;99.90;;;;;;5045303;28;20302;-84
2023/04/10 00:29:19;;;;;;;54.63;33.70;;;8.50;99.90;;;;;;5044619;28;20210;-83
2023/04/10 00:31:46;;;;;;;55.70;32.20;;;8.40;99.90;;;;;;5046410;28;20212;-84
2023/04/10 00:34:13;;;;;;;52.43;32.80;;;8.40;99.90;;;;;;5045525;28;20228;-84
2023/04/10 00:36:39;;;;;;;55.03;32.80;;;8.30;99.90;;;;;;5029760;28;20298;-84
2023/04/10 00:39:08;;;;;;;53.03;32.50;;;8.30;99.90;;;;;;5051600;28;20239;-84
2023/04/10 00:41:34;;;;;;;53.77;33.50;;;8.30;99.90;;;;;;5048993;28;20215;-84
2023/04/10 00:44:01;;;;;;;54.10;33.10;;;8.30;99.90;;;;;;5049515;28;20203;-85
2023/04/10 00:46:30;;;;;;;50.60;33.60;;;8.30;99.90;;;;;;5054182;28;20203;-83
2023/04/10 00:48:57;;;;;;;55.87;34.27;;;8.20;99.90;;;;;;5057612;28;20224;-84
2023/04/10 00:51:25;;;;;;;56.00;32.90;;;8.20;99.90;;;;;;5060897;28;20199;-83
2023/04/10 00:53:53;;;;;;;49.97;31.80;;;8.20;99.90;;;;;;5052899;28;20223;-84
2023/04/10 00:56:22;;;;;;;49.10;31.73;;;8.10;99.90;;;;;;5048315;28;20204;-84
2023/04/10 00:58:49;;;;;;;52.10;31.20;;;8.10;99.90;;;;;;5046479;28;20214;-84
2023/04/10 01:01:16;;;;;;;48.00;30.83;;;8.10;99.90;;;;;;5045886;28;20199;-85
2023/04/10 01:03:44;;;;;;;48.10;30.37;;;8.10;99.90;;;;;;5044930;28;20620;-84
2023/04/10 01:06:34;;;;;;;50.00;29.30;;;8.10;99.90;;;;;;5033889;28;20282;-85
2023/04/10 01:09:19;;;;;;;46.47;28.73;;;8.10;99.90;;;;;;5025347;28;20219;-85
2023/04/10 01:11:53;;;;;;;46.30;28.63;;;8.10;99.90;;;;;;5044444;28;20200;-85
2023/04/10 01:14:31;;;;;;;46.40;28.17;;;8.10;99.90;;;;;;5051001;28;20210;-85
2023/04/10 01:17:16;;;;;;;43.20;26.97;;;8.10;99.90;;;;;;5027389;28;20212;-85
2023/04/10 01:20:03;;;;;;;41.67;27.47;;;8.10;99.90;;;;;;5046069;28;20226;-87
2023/04/10 01:22:56;;;;;;;44.43;27.63;;;8.00;99.90;;;;;;5044360;28;20214;-85
2023/04/10 01:25:34;;;;;;;41.27;26.13;;;8.00;99.90;;;;;;5014082;28;20197;-84
2023/04/10 01:28:19;;;;;;;40.80;25.40;;;7.90;99.90;;;;;;5026087;28;20210;-85
2023/04/10 01:30:49;;;;;;;43.70;26.63;;;8.00;99.90;;;;;;5045018;28;20202;-83
2023/04/10 01:33:25;;;;;;;44.30;25.13;;;8.00;99.90;;;;;;5026535;28;20238;-84
2023/04/10 01:35:56;;;;;;;37.57;24.90;;;8.00;99.90;;;;;;5042119;28;20238;-85
2023/04/10 01:38:27;;;;;;;40.53;26.33;;;8.00;99.90;;;;;;5045908;28;20203;-84
2023/04/10 01:40:55;;;;;;;39.07;24.53;;;7.90;99.90;;;;;;5045776;28;20208;-85
2023/04/10 01:43:24;;;;;;;40.60;25.40;;;7.90;99.90;;;;;;5045395;28;20289;-85
2023/04/10 01:45:52;;;;;;;42.20;25.43;;;7.90;99.90;;;;;;5024291;28;20748;-85
2023/04/10 01:48:19;;;;;;;38.33;24.70;;;7.90;99.90;;;;;;5042113;28;20230;-84
2023/04/10 01:50:47;;;;;;;38.13;23.80;;;7.90;99.90;;;;;;5044524;28;20234;-83
2023/04/10 01:53:14;;;;;;;40.73;25.40;;;7.90;99.90;;;;;;5027442;28;20234;-85
2023/04/10 01:55:42;;;;;;;40.73;24.37;;;7.90;99.90;;;;;;5032375;28;20220;-83
2023/04/10 01:58:09;;;;;;;43.40;25.33;;;7.90;99.90;;;;;;5026106;28;20289;-85
2023/04/10 02:00:40;;;;;;;37.07;23.00;;;7.90;99.90;;;;;;5042026;28;20681;-85
2023/04/10 02:03:08;;;;;;;36.47;23.80;;;8.00;99.90;;;;;;5055107;28;20510;-84
2023/04/10 02:05:51;;;;;;;35.63;23.03;;;7.90;99.90;;;;;;5052352;28;20592;-84
2023/04/10 02:08:30;;;;;;;40.63;24.60;;;7.90;99.90;;;;;;5047279;28;20289;-84
2023/04/10 02:11:14;;;;;;;37.10;23.57;;;7.90;99.90;;;;;;5029434;28;20297;-85
2023/04/10 02:13:41;;;;;;;34.70;22.77;;;8.00;99.90;;;;;;5040292;28;20312;-84
2023/04/10 02:16:09;;;;;;;37.67;23.07;;;7.90;99.90;;;;;;5021928;28;20203;-85
2023/04/10 02:18:37;;;;;;;38.53;25.03;;;7.90;99.90;;;;;;5037475;28;20341;-84
2023/04/10 02:21:06;;;;;;;34.30;22.07;;;7.90;99.90;;;;;;5027206;28;20607;-84
2023/04/10 02:23:34;;;;;;;34.80;21.90;;;7.90;99.90;;;;;;5034594;28;20242;-84
2023/04/10 02:26:06;;;;;;;36.53;22.17;;;7.90;99.90;;;;;;5041317;28;20557;-84
2023/04/10 02:28:33;;;;;;;37.43;22.70;;;7.90;99.90;;;;;;5044210;28;20232;-84
2023/04/10 02:31:00;;;;;;;37.87;22.73;;;7.90;99.90;;;;;;5025626;28;20294;-84
2023/04/10 02:33:28;;;;;;;32.97;21.87;;;7.90;99.90;;;;;;5041068;28;20227;-85
2023/04/10 02:35:54;;;;;;;32.33;20.50;;;7.90;99.90;;;;;;5027750;28;20206;-84
2023/04/10 02:38:21;;;;;;;35.33;21.63;;;7.90;99.90;;;;;;5023329;28;20578;-85
2023/04/10 02:40:49;;;;;;;34.50;21.90;;;7.90;99.90;;;;;;5025512;28;20198;-84
2023/04/10 02:43:16;;;;;;;32.17;21.63;;;7.80;99.90;;;;;;5043898;28;20324;-84
2023/04/10 02:45:43;;;;;;;33.47;20.20;;;7.80;99.90;;;;;;5040067;28;20202;-84
2023/04/10 02:48:10;;;;;;;37.33;21.13;;;7.70;99.90;;;;;;5025552;28;20301;-84
2023/04/10 02:50:36;;;;;;;36.73;21.77;;;7.80;99.90;;;;;;5043585;28;20250;-84
2023/04/10 02:53:03;;;;;;;30.20;20.03;;;7.80;99.90;;;;;;5039530;28;20254;-84
2023/04/10 02:55:30;;;;;;;32.60;19.77;;;7.80;99.90;;;;;;5042029;28;20789;-83
2023/04/10 02:57:57;;;;;;;34.67;21.37;;;7.80;99.90;;;;;;5040567;28;20701;-84
2023/04/10 03:00:23;;;;;;;33.63;20.33;;;7.80;99.90;;;;;;5042966;28;20190;-84
2023/04/10 03:02:52;;;;;;;35.30;19.87;;;7.70;99.90;;;;;;5021260;28;20265;-84
2023/04/10 03:05:19;;;;;;;30.97;20.03;;;7.70;99.90;;;;;;5041123;28;20622;-85
2023/04/10 03:07:46;;;;;;;33.17;20.67;;;7.80;99.90;;;;;;5024843;28;20246;-85
2023/04/10 03:10:13;;;;;;;31.53;19.97;;;7.80;99.90;;;;;;5023692;28;20213;-84
2023/04/10 03:12:39;;;;;;;36.33;19.77;;;7.70;99.90;;;;;;5044732;28;20265;-86
2023/04/10 03:15:07;;;;;;;35.53;20.77;;;7.70;99.90;;;;;;5042305;28;20301;-84
2023/04/10 03:17:34;;;;;;;31.10;20.07;;;7.70;99.90;;;;;;5040949;28;20292;-84
2023/04/10 03:20:02;;;;;;;33.87;21.00;;;7.70;99.90;;;;;;5044255;28;20674;-83
2023/04/10 03:22:31;;;;;;;34.03;21.87;;;7.70;99.90;;;;;;5044745;28;20312;-83
2023/04/10 03:24:58;;;;;;;34.13;21.53;;;7.70;99.90;;;;;;5038484;28;20284;-84
2023/04/10 03:27:25;;;;;;;33.87;20.63;;;7.70;99.90;;;;;;5042054;28;20260;-84
2023/04/10 03:29:52;;;;;;;32.07;19.60;;;7.70;99.90;;;;;;5043684;28;20279;-84
2023/04/10 03:32:19;;;;;;;30.30;20.37;;;7.70;99.90;;;;;;5023275;28;20201;-85
2023/04/10 03:34:47;;;;;;;31.23;19.83;;;7.70;99.90;;;;;;5025469;28;20238;-84
2023/04/10 03:37:14;;;;;;;32.33;20.57;;;7.60;99.90;;;;;;5041099;28;20648;-84
2023/04/10 03:39:41;;;;;;;34.90;21.00;;;7.60;99.90;;;;;;5045154;28;20244;-85
2023/04/10 03:42:07;;;;;;;35.13;20.20;;;7.60;99.90;;;;;;5023906;28;20243;-83
2023/04/10 03:44:34;;;;;;;32.53;20.67;;;7.60;99.90;;;;;;5040829;28;20213;-83
2023/04/10 03:47:01;;;;;;;33.73;20.80;;;7.60;99.90;;;;;;5039735;28;20258;-84
2023/04/10 03:49:28;;;;;;;35.47;20.23;;;7.60;99.90;;;;;;5038970;28;20220;-83
2023/04/10 03:51:55;;;;;;;34.80;20.30;;;7.60;99.90;;;;;;5041358;28;20585;-84
2023/04/10 03:54:21;;;;;;;33.63;20.60;;;7.40;99.90;;;;;;5041141;28;20573;-85
2023/04/10 03:56:48;;;;;;;32.07;20.00;;;7.50;99.90;;;;;;5045402;28;20202;-86
2023/04/10 03:59:15;;;;;;;36.23;20.83;;;7.50;99.90;;;;;;5044252;28;20207;-84
2023/04/10 04:01:42;;;;;;;35.53;21.10;;;7.50;99.90;;;;;;5042625;28;20211;-84
2023/04/10 04:04:09;;;;;;;35.87;20.70;;;7.50;99.90;;;;;;5045496;28;20226;-84
2023/04/10 04:06:36;;;;;;;35.30;21.20;;;7.50;99.90;;;;;;5034895;28;20255;-85
2023/04/10 04:09:02;;;;;;;31.87;20.13;;;7.40;99.90;;;;;;5027573;28;20652;-84
2023/04/10 04:11:30;;;;;;;33.97;19.93;;;7.40;99.90;;;;;;5024750;28;20315;-84
2023/04/10 04:13:57;;;;;;;34.00;20.97;;;7.40;99.90;;;;;;5045245;28;20282;-85
2023/04/10 04:16:26;;;;;;;34.23;20.97;;;7.40;99.90;;;;;;5045696;28;20220;-85
2023/04/10 04:18:55;;;;;;;30.30;19.20;;;7.30;99.90;;;;;;5027577;28;20527;-85
2023/04/10 04:21:22;;;;;;;36.43;20.77;;;7.30;99.90;;;;;;5047676;28;20657;-85
2023/04/10 04:23:51;;;;;;;35.47;20.77;;;7.30;99.90;;;;;;5028536;28;20299;-85
2023/04/10 04:26:20;;;;;;;32.73;20.90;;;7.30;99.90;;;;;;5048560;28;20567;-85
2023/04/10 04:28:48;;;;;;;36.60;21.67;;;7.30;99.90;;;;;;5041561;28;20580;-84
2023/04/10 04:31:15;;;;;;;32.40;20.43;;;7.20;99.90;;;;;;5042934;28;20202;-85
2023/04/10 04:33:41;;;;;;;32.20;20.17;;;7.20;99.90;;;;;;5026755;28;20241;-84
2023/04/10 04:36:08;;;;;;;34.20;20.67;;;7.20;99.90;;;;;;5045906;28;20216;-83
2023/04/10 04:38:35;;;;;;;32.83;20.20;;;7.20;99.90;;;;;;5027662;28;20223;-85
2023/04/10 04:41:02;;;;;;;33.73;20.40;;;7.20;99.90;;;;;;5027164;28;20588;-86
2023/04/10 04:43:29;;;;;;;30.13;19.60;;;7.20;99.90;;;;;;5042234;28;20300;-85
2023/04/10 04:45:56;;;;;;;32.93;19.73;;;7.10;99.90;;;;;;5044789;28;20670;-85
2023/04/10 04:48:23;;;;;;;32.47;19.87;;;7.10;99.90;;;;;;5045403;28;20213;-85
2023/04/10 04:50:51;;;;;;;33.17;19.67;;;7.20;99.90;;;;;;5024483;28;20208;-85
2023/04/10 04:53:18;;;;;;;32.57;19.83;;;7.20;99.90;;;;;;5032424;28;20222;-85
2023/04/10 04:55:44;;;;;;;33.60;20.10;;;7.20;99.90;;;;;;5036724;28;20231;-85
2023/04/10 04:58:12;;;;;;;32.53;19.97;;;7.20;99.90;;;;;;5049236;28;20229;-86
2023/04/10 05:00:39;;;;;;;33.03;19.93;;;7.20;99.90;;;;;;5046046;28;20201;-86
2023/04/10 05:03:06;;;;;;;34.17;19.47;;;7.20;99.90;;;;;;5048233;28;20299;-84
2023/04/10 05:05:33;;;;;;;32.33;20.40;;;7.20;99.90;;;;;;5046727;28;20202;-85
2023/04/10 05:08:00;;;;;;;29.53;19.33;;;7.20;99.90;;;;;;5040543;28;20505;-84
2023/04/10 05:10:27;;;;;;;32.47;18.73;;;7.20;99.90;;;;;;5044190;28;20222;-84
2023/04/10 05:12:53;;;;;;;35.70;19.77;;;7.20;99.90;;;;;;5044278;28;20205;-86
2023/04/10 05:15:20;;;;;;;31.80;20.37;;;7.20;99.90;;;;;;5044161;28;20585;-86
2023/04/10 05:17:49;;;;;;;31.30;18.10;;;7.30;99.90;;;;;;5043892;28;20223;-88
2023/04/10 05:20:16;;;;;;;36.37;19.87;;;7.30;99.90;;;;;;5024567;28;20219;-86
2023/04/10 05:22:43;;;;;;;32.57;19.03;;;7.40;99.90;;;;;;5043860;28;20292;-84
2023/04/10 05:25:10;;;;;;;30.07;18.97;;;7.40;99.90;;;;;;5042365;28;20288;-85
2023/04/10 05:27:37;;;;;;;31.43;19.17;;;7.50;99.90;;;;;;5044387;28;20203;-86
2023/04/10 05:30:04;;;;;;;31.20;18.97;;;7.50;99.90;;;;;;5048250;28;20201;-84
2023/04/10 05:32:31;;;;;;;30.90;18.87;;;7.50;99.90;;;;;;5023773;28;20226;-87
2023/04/10 05:34:58;;;;;;;33.13;18.70;;;7.50;99.90;;;;;;5042038;28;20280;-84
2023/04/10 05:37:25;;;;;;;29.47;19.17;;;7.60;99.90;;;;;;5045894;28;20288;-86
2023/04/10 05:39:52;;;;;;;32.80;18.87;;;7.60;99.90;;;;;;5047838;28;20207;-85
2023/04/10 05:42:19;;;;;;;32.53;19.17;;;7.70;99.90;;;;;;5045016;28;20290;-84
2023/04/10 05:44:49;;;;;;;29.33;17.80;;;7.70;99.90;;;;;;5044083;28;20225;-82
2023/04/10 05:47:16;;;;;;;31.57;19.20;;;7.70;99.90;;;;;;5058923;28;20218;-84
2023/04/10 05:49:45;;;;;;;29.50;18.37;;;7.80;99.90;;;;;;5034325;28;20201;-85
2023/04/10 05:52:12;;;;;;;28.47;17.67;;;7.90;99.90;;;;;;5062103;28;20215;-85
2023/04/10 05:54:38;;;;;;;29.17;18.33;;;8.00;99.90;;;;;;5052718;28;20336;-86
2023/04/10 05:57:05;;;;;;;28.37;18.10;;;8.10;99.90;;;;;;5045564;28;20724;-83
2023/04/10 05:59:33;;;;;;;27.50;17.60;;;8.10;99.90;;;;;;5050862;28;20208;-85
2023/04/10 06:02:00;;;;;;;28.07;17.70;;;8.20;99.90;;;;;;5024922;28;20298;-84
2023/04/10 06:04:27;;;;;;;30.20;17.47;;;8.30;99.90;;;;;;5045876;28;20277;-84
2023/04/10 06:06:54;;;;;;;29.60;18.17;;;8.40;99.90;;;;;;5028564;28;20207;-84
2023/04/10 06:09:21;;;;;;;28.50;17.77;;;8.50;99.90;;;;;;5042125;28;20771;-84
2023/04/10 06:11:48;;;;;;;30.30;18.17;;;8.60;99.90;;;;;;5047855;28;20248;-86
2023/04/10 06:14:16;;;;;;;28.40;17.70;;;8.70;99.90;;;;;;5030217;28;20223;-85
2023/04/10 06:16:43;;;;;;;27.80;17.63;;;8.80;99.90;;;;;;5031674;28;20261;-83
2023/04/10 06:19:13;;;;;;;26.87;16.83;;;8.90;99.90;;;;;;5032999;28;20242;-85
2023/04/10 06:21:39;;;;;;;27.63;17.33;;;9.10;99.90;;;;;;5054444;28;20282;-85
2023/04/10 06:24:06;;;;;;;27.63;17.67;;;9.10;99.90;;;;;;5034070;28;20223;-84
2023/04/10 06:26:33;;;;;;;26.60;16.83;;;9.20;99.90;;;;;;5045098;28;20336;-85
2023/04/10 06:29:00;;;;;;;25.73;16.83;;;9.40;99.90;;;;;;5029378;28;20297;-83
2023/04/10 06:31:27;;;;;;;25.63;17.23;;;9.40;99.90;;;;;;5046661;28;20213;-84
2023/04/10 06:33:54;;;;;;;27.30;16.77;;;9.50;99.90;;;;;;5044519;28;20241;-84
2023/04/10 06:36:21;;;;;;;25.40;16.20;;;9.60;99.90;;;;;;5041779;28;20256;-84
2023/04/10 06:38:48;;;;;;;22.83;14.77;;;9.70;99.90;;;;;;5029637;28;20541;-84
2023/04/10 06:41:14;;;;;;;24.47;15.40;;;9.90;99.90;;;;;;5046763;28;20559;-84
2023/04/10 06:43:41;;;;;;;25.80;17.17;;;10.10;99.90;;;;;;5043800;28;20320;-84
2023/04/10 06:46:08;;;;;;;21.67;15.37;;;10.30;99.90;;;;;;5029034;28;20220;-84
2023/04/10 06:48:35;;;;;;;23.27;15.17;;;10.50;99.90;;;;;;5024661;28;20272;-86
2023/04/10 06:51:02;;;;;;;23.27;15.70;;;;;;;;;;5044580;28;20200;-83
2023/04/10 06:53:29;;;;;;;24.00;16.00;;;11.00;99.90;;;;;;5040390;28;20209;-86
2023/04/10 06:55:58;;;;;;;24.53;15.63;;;11.20;99.90;;;;;;5047125;28;20328;-85
2023/04/10 06:58:31;;;;;;;25.50;15.83;;;11.40;99.90;;;;;;5032608;28;20224;-87
2023/04/10 07:01:03;;;;;;;21.87;14.93;;;11.60;99.90;;;;;;5034807;28;20263;-85
2023/04/10 07:03:31;;;;;;;23.23;14.90;;;11.70;99.90;;;;;;5041925;28;20223;-85
2023/04/10 07:06:00;;;;;;;22.30;14.33;;;12.20;99.90;;;;;;5026674;28;20610;-84
2023/04/10 07:08:27;;;;;;;20.87;14.63;;;12.70;99.90;;;;;;5043212;28;20240;-84
2023/04/10 07:10:54;;;;;;;21.33;14.83;;;13.10;99.90;;;;;;5043318;28;20281;-85
2023/04/10 07:13:23;;;;;;;20.07;13.70;;;13.50;99.90;;;;;;5026983;28;20198;-87
2023/04/10 07:15:50;;;;;;;19.93;13.27;;;13.70;99.90;;;;;;5041806;28;20711;-85
2023/04/10 07:18:17;;;;;;;20.73;14.50;;;13.80;99.90;;;;;;5022105;28;20566;-86
2023/04/10 07:20:44;;;;;;;19.37;14.13;;;14.30;99.90;;;;;;5042902;28;20211;-85
2023/04/10 07:23:10;;;;;;;20.70;14.63;;;13.90;99.90;;;;;;5024530;28;20237;-85
2023/04/10 07:25:41;;;;;;;19.97;14.20;;;14.00;99.90;;;;;;5023815;28;20274;-87
2023/04/10 07:28:09;;;;;;;20.17;14.00;;;14.10;99.90;;;;;;5022244;28;20209;-84
2023/04/10 07:30:36;;;;;;;18.93;12.87;;;14.20;99.90;;;;;;5043487;28;20678;-86
2023/04/10 07:33:03;;;;;;;19.33;14.50;;;14.30;99.90;;;;;;5045778;28;20223;-84
2023/04/10 07:35:30;;;;;;;20.53;14.40;;;14.30;99.90;;;;;;5046230;28;20225;-85
2023/04/10 07:37:57;;;;;;;17.60;13.20;;;14.40;99.90;;;;;;5044323;28;20285;-83
2023/04/10 07:40:23;;;;;;;20.80;13.97;;;14.40;99.90;;;;;;5030439;28;20208;-83
2023/04/10 07:42:50;;;;;;;19.37;13.30;;;14.60;99.90;;;;;;5045736;28;20228;-84
2023/04/10 07:45:19;;;;;;;19.57;12.83;;;14.40;99.90;;;;;;5044754;28;20208;-84
2023/04/10 07:47:46;;;;;;;19.17;12.60;;;14.50;99.90;;;;;;5045205;28;20206;-82
2023/04/10 07:50:13;;;;;;;17.97;13.07;;;14.40;99.90;;;;;;5047200;28;20236;-84
2023/04/10 07:52:40;;;;;;;16.43;12.77;;;14.40;99.90;;;;;;5045589;28;20690;-85
2023/04/10 07:55:07;;;;;;;17.70;12.23;;;14.20;99.90;;;;;;5044751;28;20220;-83
2023/04/10 07:57:34;;;;;;;17.73;12.67;;;14.20;99.90;;;;;;5047714;28;20213;-83
2023/04/10 08:00:02;;;;;;;19.13;12.47;;;14.20;99.90;;;;;;5026733;28;20238;-81
2023/04/10 08:02:29;;;;;;;17.57;11.33;;;14.20;99.90;;;;;;5044873;28;20225;-83
2023/04/10 08:04:56;;;;;;;16.97;12.77;;;14.20;99.90;;;;;;5047014;28;20201;-82
2023/04/10 08:07:24;;;;;;;17.57;12.80;;;14.40;99.90;;;;;;5043528;28;20201;-83
2023/04/10 08:09:50;;;;;;;16.43;11.40;;;14.40;99.90;;;;;;5049241;28;20686;-83
2023/04/10 08:12:17;;;;;;;18.07;11.33;;;14.50;99.90;;;;;;5049387;28;20338;-82
2023/04/10 08:14:44;;;;;;;19.03;11.37;;;14.60;99.90;;;;;;5045203;28;20229;-82
2023/04/10 08:17:13;;;;;;;13.70;10.48;;;14.80;99.90;;;;;;5033134;28;20202;-83
2023/04/10 08:19:41;;;;;;;15.17;10.80;;;15.00;99.90;;;;;;5042214;28;20320;-85
2023/04/10 08:22:09;;;;;;;14.88;10.43;;;15.40;99.90;;;;;;5027705;28;20650;-83
2023/04/10 08:24:36;;;;;;;14.35;10.45;;;;;;;;;;5029912;28;20202;-82
2023/04/10 08:27:03;;;;;;;13.43;9.63;;;16.30;99.90;;;;;;5022658;28;20669;-84
2023/04/10 08:29:29;;;;;;;12.60;9.93;;;16.80;99.90;;;;;;5025429;28;20202;-82
2023/04/10 08:31:59;;;;;;;14.23;10.57;;;17.00;99.90;;;;;;5028103;28;20190;-82
2023/04/10 08:34:27;;;;;;;12.23;9.50;;;17.10;99.90;;;;;;5024738;28;20238;-84
2023/04/10 08:36:54;;;;;;;13.20;10.30;;;17.30;99.90;;;;;;5019909;28;20317;-83
2023/04/10 08:39:23;;;;;;;14.98;10.18;;;17.40;99.90;;;;;;5038406;28;20202;-83
2023/04/10 08:41:50;;;;;;;13.70;10.07;;;17.40;99.90;;;;;;5018358;28;20219;-84
2023/04/10 08:44:19;;;;;;;12.05;9.55;;;17.40;99.90;;;;;;5027624;28;20206;-83
2023/04/10 08:46:48;;;;;;;12.75;9.45;;;17.50;99.90;;;;;;5030635;28;20288;-83
2023/04/10 08:49:46;;;;;;;11.73;9.52;;;17.60;99.90;;;;;;5019947;28;20226;-84
2023/04/10 08:52:26;;;;;;;12.05;8.93;;;17.60;99.90;;;;;;5035749;28;20218;-82
2023/04/10 08:54:55;;;;;;;13.25;8.75;;;17.50;99.90;;;;;;5023392;28;20225;-82
2023/04/10 08:57:22;;;;;;;12.30;8.95;;;17.40;99.90;;;;;;5021742;28;20675;-82
2023/04/10 08:59:50;;;;;;;12.18;8.90;;;17.40;99.90;;;;;;5022239;28;20206;-83
2023/04/10 09:02:18;;;;;;;9.80;8.25;;;17.40;99.90;;;;;;5023620;28;20234;-81
2023/04/10 09:04:50;;;;;;;10.65;8.60;;;17.40;99.90;;;;;;5021829;28;20667;-81
2023/04/10 09:07:17;;;;;;;11.68;8.55;;;17.40;99.90;;;;;;5025146;28;20202;-81
2023/04/10 09:09:44;;;;;;;11.07;8.45;;;17.40;99.90;;;;;;5024601;28;20604;-82
2023/04/10 09:12:12;;;;;;;11.05;8.52;;;17.30;99.90;;;;;;5020838;28;20293;-81
2023/04/10 09:14:40;;;;;;;11.27;8.82;;;17.30;99.90;;;;;;5026058;28;20319;-84
2023/04/10 09:17:13;;;;;;;12.20;8.70;;;17.30;99.90;;;;;;5022428;28;20202;-83
2023/04/10 09:19:40;;;;;;;11.15;9.10;;;17.50;99.90;;;;;;5036015;28;20217;-82
2023/04/10 09:22:07;;;;;;;10.40;8.30;;;17.50;99.90;;;;;;5042816;28;20610;-82
2023/04/10 09:24:37;;;;;;;10.00;8.00;;;17.70;99.90;;;;;;5044685;28;20270;-81
2023/04/10 09:27:04;;;;;;;11.00;8.63;;;17.40;99.90;;;;;;5043657;28;20197;-82
2023/04/10 09:29:47;;;;;;;11.25;8.85;;;17.30;99.90;;;;;;5042587;28;20215;-80
2023/04/10 09:32:50;;;;;;;12.82;9.20;;;17.20;99.90;;;;;;5039544;28;20601;-82
2023/04/10 09:35:17;;;;;;;11.23;8.13;;;17.00;99.90;;;;;;4962072;28;20727;-81
2023/04/10 09:37:44;;;;;;;10.38;8.40;;;16.90;99.90;;;;;;5008557;28;20208;-84
2023/04/10 09:40:24;;;;;;;10.45;8.27;;;16.90;99.90;;;;;;5022856;28;20296;-80
2023/04/10 09:42:52;;;;;;;10.13;8.30;;;17.00;99.90;;;;;;5042911;28;20240;-82
2023/04/10 09:45:21;;;;;;;11.32;8.52;;;16.90;99.90;;;;;;5042642;28;20197;-81
2023/04/10 09:48:15;;;;;;;11.82;8.68;;;16.80;99.90;;;;;;5040464;28;20795;-80
2023/04/10 09:50:42;;;;;;;11.43;8.25;;;16.70;99.90;;;;;;5041617;28;20624;-79
2023/04/10 09:53:14;;;;;;;10.52;8.13;;;16.50;99.90;;;;;;5043416;28;20195;-80
2023/04/10 09:55:42;;;;;;;11.20;8.82;;;16.50;99.90;;;;;;5036871;28;20229;-80
2023/04/10 09:58:09;;;;;;;12.63;8.93;;;16.40;99.90;;;;;;5045246;28;20194;-80
2023/04/10 10:00:42;;;;;;;11.57;8.52;;;16.30;99.90;;;;;;5043367;28;20213;-80
2023/04/10 10:03:13;;;;;;;11.05;8.63;;;16.30;99.90;;;;;;5043302;28;20681;-80
2023/04/10 10:05:46;;;;;;;11.27;8.65;;;16.20;99.90;;;;;;5033836;28;20244;-80
2023/04/10 10:08:14;;;;;;;11.52;8.82;;;16.20;99.90;;;;;;5043293;28;20624;-79
2023/04/10 10:10:47;;;;;;;13.38;8.38;;;16.10;99.90;;;;;;5048624;28;20209;-80
2023/04/10 10:13:40;;;;;;;10.93;8.07;;;16.20;99.90;;;;;;5045070;28;20206;-79
2023/04/10 10:16:16;;;;;;;11.05;8.38;;;16.10;99.90;;;;;;5041954;28;20228;-80
2023/04/10 10:19:10;;;;;;;11.85;8.80;;;15.90;99.90;;;;;;5042059;28;20233;-80
2023/04/10 10:21:38;;;;;;;10.60;8.32;;;15.90;99.90;;;;;;5041960;28;20340;-80
2023/04/10 10:24:08;;;;;;;13.98;9.80;;;15.90;99.90;;;;;;5023756;28;20194;-79
2023/04/10 10:26:38;;;;;;;13.88;8.73;;;15.90;99.90;;;;;;5041611;28;20209;-80
2023/04/10 10:29:10;;;;;;;12.38;7.85;;;16.10;99.90;;;;;;5044739;28;20612;-80
2023/04/10 10:31:37;;;;;;;12.18;8.50;;;16.10;99.90;;;;;;5041654;28;20213;-80
2023/04/10 10:34:06;;;;;;;12.32;9.30;;;16.10;99.90;;;;;;5039067;28;20264;-81
2023/04/10 10:36:34;;;;;;;10.77;8.35;;;16.20;99.90;;;;;;5042348;28;20220;-80
2023/04/10 10:39:04;;;;;;;11.73;8.63;;;16.30;99.90;;;;;;5042898;28;20216;-79
2023/04/10 10:42:01;;;;;;;12.40;9.38;;;16.40;99.90;;;;;;5039573;28;20216;-79
2023/04/10 10:44:46;;;;;;;10.85;8.13;;;16.40;99.90;;;;;;5040233;28;20660;-80
2023/04/10 10:47:23;;;;;;;11.35;8.48;;;16.50;99.90;;;;;;5038855;28;20219;-78
2023/04/10 10:49:55;;;;;;;12.02;8.13;;;16.50;99.90;;;;;;5041816;28;20211;-81
2023/04/10 10:52:56;;;;;;;10.95;8.60;;;16.50;99.90;;;;;;5035794;28;20198;-80
2023/04/10 10:57:52;;;;;;;10.45;8.43;;;16.50;99.90;;;;;;5038798;28;20526;-81
2023/04/10 11:00:20;;;;;;;11.43;8.63;;;16.60;99.90;;;;;;5022945;28;20216;-80
2023/04/10 11:03:09;;;;;;;10.60;7.95;;;16.60;99.90;;;;;;5040646;28;20232;-81
2023/04/10 11:06:01;;;;;;;11.35;8.20;;;16.60;99.90;;;;;;5045730;28;20205;-81
2023/04/10 11:08:41;;;;;;;10.68;8.25;;;16.60;99.90;;;;;;5043652;28;20293;-80
2023/04/10 11:11:11;;;;;;;11.65;8.55;;;16.60;99.90;;;;;;5037208;28;20252;-78
2023/04/10 11:13:43;;;;;;;10.63;8.40;;;16.70;99.90;;;;;;5044849;28;20243;-79
2023/04/10 11:16:10;;;;;;;11.93;8.30;;;16.80;99.90;;;;;;5023027;28;20309;-80
2023/04/10 11:18:46;;;;;;;11.05;7.70;;;16.90;99.90;;;;;;5041104;28;20232;-81
2023/04/10 11:21:28;;;;;;;9.90;7.70;;;17.00;99.90;;;;;;5045758;28;20575;-80
2023/04/10 11:23:55;;;;;;;9.45;7.50;;;17.00;99.90;;;;;;5041157;28;20193;-80
2023/04/10 11:29:02;;;;;;;10.73;7.32;;;17.20;99.90;;;;;;5038523;28;20213;-80
2023/04/10 11:31:30;;;;;;;11.05;8.02;;;17.20;99.90;;;;;;5043954;28;20244;-82
2023/04/10 11:33:57;;;;;;;10.70;7.15;;;17.30;99.90;;;;;;5041939;28;20222;-80
2023/04/10 11:36:25;;;;;;;9.65;6.65;;;17.40;99.90;;;;;;5043221;28;20252;-79
2023/04/10 11:38:57;;;;;;;8.80;6.53;;;17.50;99.90;;;;;;5020577;28;20202;-78
2023/04/10 11:41:29;;;;;;;9.98;7.13;;;17.50;99.90;;;;;;5041295;28;20588;-81
2023/04/10 11:43:57;;;;;;;8.98;7.03;;;17.70;99.90;;;;;;5019131;28;20208;-80
2023/04/10 11:46:24;;;;;;;12.52;7.28;;;17.80;99.90;;;;;;5036130;28;20226;-80
2023/04/10 11:48:59;;;;;;;9.07;6.68;;;18.00;99.90;;;;;;5020129;28;20225;-80
2023/04/10 11:51:27;;;;;;;9.18;6.38;;;18.20;99.90;;;;;;5040599;28;20255;-81
2023/04/10 11:54:25;;;;;;;8.70;7.00;;;18.30;99.90;;;;;;5040096;28;20209;-82
2023/04/10 11:57:05;;;;;;;8.23;6.00;;;18.50;99.90;;;;;;5027272;28;20224;-81
2023/04/10 11:59:33;;;;;;;8.68;6.07;;;18.70;99.90;;;;;;5012206;28;20209;-82
2023/04/10 12:02:14;;;;;;;9.50;5.75;;;18.70;99.90;;;;;;5029169;28;20631;-81
2023/04/10 12:04:42;;;;;;;8.57;6.72;;;18.70;99.90;;;;;;5041613;28;20223;-81
2023/04/10 12:07:10;;;;;;;7.82;6.18;;;18.70;99.90;;;;;;5041565;28;20201;-81
2023/04/10 12:09:37;;;;;;;7.47;6.15;;;18.70;99.90;;;;;;5039306;28;20218;-81
2023/04/10 12:12:05;;;;;;;8.65;5.65;;;18.80;99.90;;;;;;5032018;28;20205;-80
2023/04/10 12:14:33;;;;;;;6.75;5.55;;;18.80;99.90;;;;;;5041121;28;20277;-81
2023/04/10 12:17:02;;;;;;;7.57;5.57;;;18.80;99.90;;;;;;5040663;28;20561;-80
2023/04/10 12:19:29;;;;;;;8.02;5.40;;;18.90;99.90;;;;;;5047859;28;20259;-80
2023/04/10 12:21:57;;;;;;;7.13;5.32;;;18.90;99.90;;;;;;5055388;28;20213;-82
2023/04/10 12:24:43;;;;;;;9.05;6.07;;;19.10;99.90;;;;;;5046261;28;20645;-79
2023/04/10 12:27:22;;;;;;;7.50;5.68;;;19.00;99.90;;;;;;5024412;28;20393;-80
2023/04/10 12:29:51;;;;;;;6.60;5.57;;;19.00;99.90;;;;;;5045337;28;20197;-83
2023/04/10 12:32:18;;;;;;;7.85;6.03;;;19.00;99.90;;;;;;5040070;28;20650;-79
2023/04/10 12:34:56;;;;;;;9.15;5.72;;;19.00;99.90;;;;;;5046656;28;20201;-80
2023/04/10 12:37:24;;;;;;;5.85;5.25;;;19.10;99.90;;;;;;5047858;28;20204;-81
2023/04/10 12:39:51;;;;;;;7.78;6.03;;;19.30;99.90;;;;;;5027917;28;20243;-81
2023/04/10 12:42:21;;;;;;;5.60;4.95;;;19.40;99.90;;;;;;5042268;28;20682;-81
2023/04/10 12:44:59;;;;;;;6.68;5.65;;;19.30;99.90;;;;;;5035190;28;20224;-81
2023/04/10 12:47:28;;;;;;;7.25;5.40;;;19.40;99.90;;;;;;5039310;28;20584;-83
2023/04/10 12:50:05;;;;;;;7.70;5.20;;;19.30;99.90;;;;;;5027279;28;20248;-80
2023/04/10 12:52:33;;;;;;;11.98;5.28;;;19.10;99.90;;;;;;5045162;28;20653;-85
2023/04/10 12:55:14;;;;;;;10.38;5.53;;;19.00;99.90;;;;;;5044123;28;20240;-82
2023/04/10 12:57:43;;;;;;;6.55;4.80;;;18.90;99.90;;;;;;5042796;28;20282;-84